Time;durP1;ratioP1;P1;durP2;ratioP2;P2;SDS_P1;SDS_P2;PMS_P1;PMS_P2;Temp;Humidity;BMP_temperature;BMP_pressure;BME280_temperature;BME280_humidity;BME280_pressure;Samples;Min_cycle;Max_cycle;Signal;HPM_P1;HPM_P2
2023/11/17 00:02:05;;;;;;;;;;;;;;;9.28;nan;100879.03;5044573;28;19955;-86
2023/11/17 00:04:30;;;;;;;;;;;;;;;9.25;nan;100883.00;5047019;28;20393;-86
2023/11/17 00:06:56;;;;;;;;;;;;;;;9.17;nan;100885.25;5049004;28;20373;-85
2023/11/17 00:09:22;;;;;;;;;;;;;;;9.10;nan;100880.00;5048007;28;19921;-85
2023/11/17 00:11:47;;;;;;;;;;;;;;;9.03;nan;100890.84;5049366;28;19923;-85
2023/11/17 00:14:12;;;;;;;;;;;;;;;9.01;nan;100884.09;5044165;28;20316;-86
2023/11/17 00:16:38;;;;;;;;;;;;;;;9.01;nan;100882.25;5046195;28;19936;-87
2023/11/17 00:19:06;;;;;;;;;;;;;;;8.99;nan;100883.53;5045671;28;19986;-87
2023/11/17 00:21:31;;;;;;;;;;;;;;;8.94;nan;100880.72;5045651;28;19921;-85
2023/11/17 00:23:56;;;;;;;;;;;;;;;8.89;nan;100883.28;5041195;28;19939;-86
2023/11/17 00:26:22;;;;;;;;;;;;;;;8.87;nan;100880.84;5043634;28;19920;-86
2023/11/17 00:28:48;;;;;;;;;;;;;;;8.84;nan;100880.50;5044696;28;19955;-87
2023/11/17 00:31:14;;;;;;;;;;;;;;;8.80;nan;100882.84;5044820;28;19996;-85
2023/11/17 00:33:41;;;;;;;;;;;;;;;8.81;nan;100889.81;5044432;28;20142;-87
2023/11/17 00:36:08;;;;;;;;;;;;;;;8.80;nan;100888.19;5047253;28;19917;-86
2023/11/17 00:38:36;;;;;;;;;;;;;;;8.74;nan;100887.25;5044503;28;19925;-86
2023/11/17 00:41:02;;;;;;;;;;;;;;;8.68;nan;100890.84;5041811;28;20258;-86
2023/11/17 00:43:28;;;;;;;;;;;;;;;8.63;nan;100895.25;5049444;28;19967;-87
2023/11/17 00:46:00;;;;;;;;;;;;;;;8.59;nan;100888.75;5046093;28;19921;-86
2023/11/17 00:48:27;;;;;;;;;;;;;;;8.59;nan;100897.56;5047550;28;19972;-86
2023/11/17 00:50:52;;;;;;;;;;;;;;;8.53;nan;100885.16;5043957;28;20477;-87
2023/11/17 00:53:22;;;;;;;;;;;;;;;8.45;nan;100890.84;5031618;28;20443;-87
2023/11/17 00:55:48;;;;;;;;;;;;;;;8.41;nan;100897.66;5041986;28;20581;-86
2023/11/17 00:58:14;;;;;;;;;;;;;;;8.40;nan;100898.69;5040708;28;19956;-86
2023/11/17 01:00:39;;;;;;;;;;;;;;;8.39;nan;100897.88;5038635;28;19952;-86
2023/11/17 01:03:05;;;;;;;;;;;;;;;8.43;nan;100896.38;5039077;28;20491;-86
2023/11/17 01:05:30;;;;;;;;;;;;;;;8.48;nan;100895.72;5044052;28;19916;-86
2023/11/17 01:07:56;;;;;;;;;;;;;;;8.49;nan;100900.00;5044727;28;20289;-86
2023/11/17 01:10:22;;;;;;;;;;;;;;;8.51;nan;100903.25;5042917;28;19929;-86
2023/11/17 01:12:47;;;;;;;;;;;;;;;8.52;nan;100904.88;5040316;28;19916;-86
2023/11/17 01:15:13;;;;;;;;;;;;;;;8.52;nan;100906.75;5041852;28;19917;-86
2023/11/17 01:17:41;;;;;;;;;;;;;;;8.50;nan;100906.97;5042016;28;20340;-87
2023/11/17 01:20:09;;;;;;;;;;;;;;;8.50;nan;100906.97;5045017;28;20011;-86
2023/11/17 01:22:34;;;;;;;;;;;;;;;8.52;nan;100906.75;5040824;28;19978;-86
2023/11/17 01:25:00;;;;;;;;;;;;;;;8.52;nan;100914.75;5040903;28;20000;-86
2023/11/17 01:27:25;;;;;;;;;;;;;;;8.46;nan;100914.63;5042934;28;20348;-86
2023/11/17 01:29:50;;;;;;;;;;;;;;;8.49;nan;100916.03;5036447;28;21499;-86
2023/11/17 01:32:16;;;;;;;;;;;;;;;8.42;nan;100916.13;5039086;28;19917;-86
2023/11/17 01:34:41;;;;;;;;;;;;;;;8.43;nan;100916.94;5039417;28;19921;-86
2023/11/17 01:37:08;;;;;;;;;;;;;;;8.44;nan;100910.56;5042135;28;19920;-86
2023/11/17 01:39:33;;;;;;;;;;;;;;;8.42;nan;100909.97;5044345;28;19927;-87
2023/11/17 01:41:59;;;;;;;;;;;;;;;8.47;nan;100918.13;5044659;28;19921;-87
2023/11/17 01:44:25;;;;;;;;;;;;;;;8.50;nan;100917.66;5041522;28;20401;-86
2023/11/17 01:46:51;;;;;;;;;;;;;;;8.49;nan;100913.34;5031323;28;19928;-87
2023/11/17 01:49:16;;;;;;;;;;;;;;;8.51;nan;100913.13;5039645;28;19916;-86
2023/11/17 01:51:43;;;;;;;;;;;;;;;8.50;nan;100906.97;5039187;28;19991;-87
2023/11/17 01:54:12;;;;;;;;;;;;;;;8.54;nan;100902.78;5043439;28;19917;-86
2023/11/17 01:56:37;;;;;;;;;;;;;;;8.55;nan;100907.09;5041623;28;19924;-86
2023/11/17 01:59:03;;;;;;;;;;;;;;;8.56;nan;100908.72;5043117;28;19921;-87
2023/11/17 02:01:30;;;;;;;;;;;;;;;8.59;nan;100907.44;5039771;28;19983;-86
2023/11/17 02:03:56;;;;;;;;;;;;;;;8.62;nan;100913.16;5044861;28;19917;-86
2023/11/17 02:06:32;;;;;;;;;;;;;;;8.66;nan;100916.97;5042602;28;19917;-86
2023/11/17 02:08:57;;;;;;;;;;;;;;;8.69;nan;100913.84;5039720;28;20380;-86
2023/11/17 02:11:37;;;;;;;;;;;;;;;8.71;nan;100906.41;5033226;28;19924;-87
2023/11/17 02:14:07;;;;;;;;;;;;;;;8.73;nan;100901.63;5042169;28;19944;-86
2023/11/17 02:16:36;;;;;;;;;;;;;;;8.78;nan;100903.59;5040065;28;19923;-86
2023/11/17 02:19:04;;;;;;;;;;;;;;;8.75;nan;100904.88;5041472;28;19987;-87
2023/11/17 02:21:31;;;;;;;;;;;;;;;8.77;nan;100905.47;5039052;28;19921;-86
2023/11/17 02:24:01;;;;;;;;;;;;;;;8.74;nan;100905.13;5039389;28;19967;-86
2023/11/17 02:26:33;;;;;;;;;;;;;;;8.74;nan;100905.94;5036512;28;20020;-85
2023/11/17 02:29:07;;;;;;;;;;;;;;;8.74;nan;100903.25;5036970;28;20447;-87
2023/11/17 02:31:32;;;;;;;;;;;;;;;8.79;nan;100908.72;5042658;28;20448;-86
2023/11/17 02:34:08;;;;;;;;;;;;;;;8.77;nan;100904.66;5039774;28;20003;-86
2023/11/17 02:36:34;;;;;;;;;;;;;;;8.79;nan;100908.72;5038711;28;19921;-86
2023/11/17 02:39:36;;;;;;;;;;;;;;;8.89;nan;100915.34;5040732;28;20380;-86
2023/11/17 02:41:58;;;;;;;;;;;;;;;8.95;nan;100914.41;5039051;28;19921;-86
2023/11/17 02:44:28;;;;;;;;;;;;;;;9.02;nan;100909.78;5039771;28;19921;-87
2023/11/17 02:46:58;;;;;;;;;;;;;;;9.04;nan;100913.03;5037725;28;20392;-87
2023/11/17 02:49:29;;;;;;;;;;;;;;;9.03;nan;100906.88;5038830;28;20116;-87
2023/11/17 02:51:55;;;;;;;;;;;;;;;9.07;nan;100918.72;5038741;28;20373;-87
2023/11/17 02:54:25;;;;;;;;;;;;;;;9.09;nan;100915.81;5040898;28;20578;-86
2023/11/17 02:56:51;;;;;;;;;;;;;;;9.14;nan;100917.78;5039842;28;20030;-87
2023/11/17 02:59:19;;;;;;;;;;;;;;;9.20;nan;100911.50;5037631;28;19917;-87
2023/11/17 03:01:45;;;;;;;;;;;;;;;9.21;nan;100918.47;5039340;28;19949;-87
2023/11/17 03:04:15;;;;;;;;;;;;;;;9.28;nan;100921.81;5042590;28;19932;-87
2023/11/17 03:06:46;;;;;;;;;;;;;;;9.28;nan;100921.81;5045645;28;20385;-87
2023/11/17 03:09:15;;;;;;;;;;;;;;;9.28;nan;100919.97;5038702;28;19921;-87
2023/11/17 03:11:47;;;;;;;;;;;;;;;9.28;nan;100925.31;5035722;28;19917;-87
2023/11/17 03:14:13;;;;;;;;;;;;;;;9.32;nan;100926.47;5039588;28;19921;-87
2023/11/17 03:16:38;;;;;;;;;;;;;;;9.39;nan;100934.38;5036730;28;19927;-87
2023/11/17 03:19:10;;;;;;;;;;;;;;;9.45;nan;100936.09;5039514;28;20015;-87
2023/11/17 03:21:40;;;;;;;;;;;;;;;9.57;nan;100926.19;5044428;28;19928;-87
2023/11/17 03:24:06;;;;;;;;;;;;;;;9.59;nan;100933.97;5040562;28;19927;-87
2023/11/17 03:26:32;;;;;;;;;;;;;;;9.64;nan;100939.44;5042512;28;19917;-88
2023/11/17 03:29:04;;;;;;;;;;;;;;;9.69;nan;100936.84;5040258;28;19921;-87
2023/11/17 03:31:30;;;;;;;;;;;;;;;9.72;nan;100940.94;5037803;28;19917;-87
2023/11/17 03:33:55;;;;;;;;;;;;;;;9.72;nan;100941.75;5040508;28;19917;-87
2023/11/17 03:36:20;;;;;;;;;;;;;;;9.70;nan;100949.19;5042448;28;19924;-86
2023/11/17 03:38:46;;;;;;;;;;;;;;;9.69;nan;100951.06;5040713;28;19927;-87
2023/11/17 03:41:13;;;;;;;;;;;;;;;9.74;nan;100949.53;5044910;28;19924;-85
2023/11/17 03:43:39;;;;;;;;;;;;;;;9.78;nan;100951.50;5043571;28;19921;-86
2023/11/17 03:46:04;;;;;;;;;;;;;;;9.80;nan;100954.72;5040904;28;19917;-87
2023/11/17 03:48:30;;;;;;;;;;;;;;;9.79;nan;100947.75;5039941;28;19924;-87
2023/11/17 03:50:55;;;;;;;;;;;;;;;9.84;nan;100950.53;5041220;28;19925;-87
2023/11/17 03:53:20;;;;;;;;;;;;;;;9.84;nan;100961.22;5043794;28;19940;-87
2023/11/17 03:55:46;;;;;;;;;;;;;;;9.86;nan;100963.66;5043652;28;19921;-87
2023/11/17 03:58:11;;;;;;;;;;;;;;;9.89;nan;100966.72;5040438;28;19921;-86
2023/11/17 04:00:37;;;;;;;;;;;;;;;9.92;nan;100968.91;5037099;28;19924;-87
2023/11/17 04:03:04;;;;;;;;;;;;;;;9.96;nan;100964.69;5044725;28;19916;-87
2023/11/17 04:05:31;;;;;;;;;;;;;;;9.94;nan;100964.13;5038511;28;20006;-87
2023/11/17 04:07:57;;;;;;;;;;;;;;;10.00;nan;100965.84;5042408;28;19925;-86
2023/11/17 04:10:23;;;;;;;;;;;;;;;10.05;nan;100965.09;5040681;28;19978;-87
2023/11/17 04:12:48;;;;;;;;;;;;;;;10.09;nan;100965.47;5042296;28;19925;-87
2023/11/17 04:15:13;;;;;;;;;;;;;;;10.10;nan;100964.41;5037982;28;20009;-87
2023/11/17 04:17:39;;;;;;;;;;;;;;;10.09;nan;100965.47;5035086;28;20389;-87
2023/11/17 04:20:05;;;;;;;;;;;;;;;10.11;nan;100960.69;5044238;28;19921;-87
2023/11/17 04:22:30;;;;;;;;;;;;;;;10.14;nan;100976.25;5037599;28;19928;-88
2023/11/17 04:24:56;;;;;;;;;;;;;;;10.15;nan;100959.97;5039438;28;19917;-87
2023/11/17 04:27:21;;;;;;;;;;;;;;;10.19;nan;100965.63;5037714;28;19920;-87
2023/11/17 04:29:46;;;;;;;;;;;;;;;10.17;nan;100965.06;5038742;28;20006;-87
2023/11/17 04:32:12;;;;;;;;;;;;;;;10.23;nan;100964.97;5042622;28;19921;-87
2023/11/17 04:34:39;;;;;;;;;;;;;;;10.20;nan;100964.59;5041436;28;19952;-87
2023/11/17 04:37:05;;;;;;;;;;;;;;;10.18;nan;100969.38;5047344;28;19975;-87
2023/11/17 04:39:31;;;;;;;;;;;;;;;10.15;nan;100976.03;5044933;28;20028;-87
2023/11/17 04:41:56;;;;;;;;;;;;;;;10.14;nan;100973.59;5042777;28;20020;-87
2023/11/17 04:44:22;;;;;;;;;;;;;;;10.24;nan;100976.50;5047129;28;19964;-87
2023/11/17 04:46:48;;;;;;;;;;;;;;;10.19;nan;100968.31;5048142;28;20451;-87
2023/11/17 04:49:14;;;;;;;;;;;;;;;10.21;nan;100971.59;5043147;28;19924;-87
2023/11/17 04:51:44;;;;;;;;;;;;;;;10.24;nan;100971.13;5044444;28;20004;-87
2023/11/17 04:54:09;;;;;;;;;;;;;;;10.27;nan;100970.66;5044063;28;20313;-87
2023/11/17 04:56:34;;;;;;;;;;;;;;;10.25;nan;100972.75;5044603;28;19979;-88
2023/11/17 04:58:59;;;;;;;;;;;;;;;10.22;nan;100957.16;5043077;28;20019;-86
2023/11/17 05:01:25;;;;;;;;;;;;;;;10.20;nan;100970.75;5046570;28;19928;-86
2023/11/17 05:03:50;;;;;;;;;;;;;;;10.18;nan;100972.84;5041973;28;20408;-86
2023/11/17 05:06:25;;;;;;;;;;;;;;;10.22;nan;100974.03;5040241;28;19917;-87
2023/11/17 05:08:50;;;;;;;;;;;;;;;10.24;nan;100982.66;5059380;28;19924;-87
2023/11/17 05:11:21;;;;;;;;;;;;;;;10.26;nan;100980.56;5039979;28;19924;-86
2023/11/17 05:13:46;;;;;;;;;;;;;;;10.34;nan;100986.56;5041081;28;19917;-87
2023/11/17 05:16:14;;;;;;;;;;;;;;;10.27;nan;100992.06;5042533;28;20479;-86
2023/11/17 05:18:39;;;;;;;;;;;;;;;10.27;nan;100989.41;5044618;28;20011;-86
2023/11/17 05:21:06;;;;;;;;;;;;;;;10.23;nan;100991.75;5044017;28;20011;-87
2023/11/17 05:23:32;;;;;;;;;;;;;;;10.25;nan;100989.63;5043609;28;19917;-87
2023/11/17 05:25:57;;;;;;;;;;;;;;;10.32;nan;100996.72;5041280;28;19917;-86
2023/11/17 05:28:22;;;;;;;;;;;;;;;10.34;nan;100992.72;5042184;28;19925;-87
2023/11/17 05:30:48;;;;;;;;;;;;;;;10.29;nan;100998.00;5042531;28;19933;-88
2023/11/17 05:33:17;;;;;;;;;;;;;;;10.32;nan;101005.56;5041735;28;19921;-87
2023/11/17 05:35:43;;;;;;;;;;;;;;;10.29;nan;101001.50;5040084;28;19916;-87
2023/11/17 05:38:08;;;;;;;;;;;;;;;10.28;nan;101002.53;5041854;28;19982;-86
2023/11/17 05:40:33;;;;;;;;;;;;;;;10.33;nan;101004.50;5040104;28;20987;-87
2023/11/17 05:42:59;;;;;;;;;;;;;;;10.37;nan;101008.31;5042978;28;19920;-87
2023/11/17 05:45:25;;;;;;;;;;;;;;;10.39;nan;101003.53;5038759;28;19975;-87
2023/11/17 05:47:50;;;;;;;;;;;;;;;10.43;nan;101009.25;5041849;28;20035;-87
2023/11/17 05:50:15;;;;;;;;;;;;;;;10.36;nan;101008.56;5042041;28;20302;-87
2023/11/17 05:52:41;;;;;;;;;;;;;;;10.34;nan;101013.34;5042981;28;20404;-87
2023/11/17 05:55:07;;;;;;;;;;;;;;;10.32;nan;101013.59;5027080;28;19924;-86
2023/11/17 05:57:32;;;;;;;;;;;;;;;10.35;nan;101023.00;5029449;28;19917;-86
2023/11/17 05:59:58;;;;;;;;;;;;;;;10.38;nan;101004.59;5040532;28;19921;-87
2023/11/17 06:02:23;;;;;;;;;;;;;;;10.40;nan;101013.19;5043535;28;19924;-87
2023/11/17 06:04:49;;;;;;;;;;;;;;;10.41;nan;101019.34;5037240;28;19931;-86
2023/11/17 06:07:14;;;;;;;;;;;;;;;10.37;nan;101008.31;5040343;28;19975;-87
2023/11/17 06:09:39;;;;;;;;;;;;;;;10.34;nan;101008.81;5038706;28;19925;-86
2023/11/17 06:12:05;;;;;;;;;;;;;;;10.35;nan;101018.47;5045023;28;19921;-87
2023/11/17 06:14:31;;;;;;;;;;;;;;;10.33;nan;101017.88;5035633;28;20590;-87
2023/11/17 06:16:57;;;;;;;;;;;;;;;10.36;nan;101028.13;5040505;28;19975;-87
2023/11/17 06:19:27;;;;;;;;;;;;;;;10.39;nan;101033.00;5041060;28;20323;-87
2023/11/17 06:21:52;;;;;;;;;;;;;;;10.42;nan;101031.72;5040442;28;19928;-86
2023/11/17 06:24:18;;;;;;;;;;;;;;;10.42;nan;101027.19;5042198;28;19916;-87
2023/11/17 06:26:45;;;;;;;;;;;;;;;10.44;nan;101035.78;5038900;28;19917;-86
2023/11/17 06:29:11;;;;;;;;;;;;;;;10.47;nan;101032.63;5037481;28;20426;-87
2023/11/17 06:31:36;;;;;;;;;;;;;;;10.52;nan;101038.06;5040178;28;19928;-87
2023/11/17 06:34:01;;;;;;;;;;;;;;;10.49;nan;101032.38;5032976;28;19917;-86
2023/11/17 06:36:27;;;;;;;;;;;;;;;10.49;nan;101041.22;5038232;28;19956;-88
2023/11/17 06:38:52;;;;;;;;;;;;;;;10.50;nan;101040.19;5036980;28;20022;-87
2023/11/17 06:41:17;;;;;;;;;;;;;;;10.48;nan;101030.75;5040684;28;19924;-87
2023/11/17 06:43:43;;;;;;;;;;;;;;;10.47;nan;101042.53;5040151;28;19928;-87
2023/11/17 06:46:08;;;;;;;;;;;;;;;10.40;nan;101048.00;5038721;28;19917;-88
2023/11/17 06:48:35;;;;;;;;;;;;;;;10.34;nan;101040.94;5038641;28;19925;-87
2023/11/17 06:51:00;;;;;;;;;;;;;;;10.35;nan;101042.56;5046277;28;19924;-87
2023/11/17 06:53:25;;;;;;;;;;;;;;;10.40;nan;101044.53;5039720;28;19936;-86
2023/11/17 06:55:51;;;;;;;;;;;;;;;10.43;nan;101044.88;5034138;28;20469;-86
2023/11/17 06:58:16;;;;;;;;;;;;;;;10.49;nan;101046.59;5040507;28;19921;-87
2023/11/17 07:00:43;;;;;;;;;;;;;;;10.51;nan;101057.06;5041439;28;19925;-87
2023/11/17 07:03:08;;;;;;;;;;;;;;;10.54;nan;101052.03;5038952;28;19936;-88
2023/11/17 07:05:34;;;;;;;;;;;;;;;10.56;nan;101060.63;5044503;28;20286;-87
2023/11/17 07:08:01;;;;;;;;;;;;;;;10.59;nan;101053.97;5039890;28;19944;-88
2023/11/17 07:10:28;;;;;;;;;;;;;;;10.67;nan;101069.69;5039443;28;19972;-87
2023/11/17 07:12:54;;;;;;;;;;;;;;;10.64;nan;101069.34;5042406;28;19952;-87
2023/11/17 07:15:19;;;;;;;;;;;;;;;10.67;nan;101066.19;5038930;28;19952;-87
2023/11/17 07:17:45;;;;;;;;;;;;;;;10.68;nan;101062.47;5039683;28;19920;-87
2023/11/17 07:20:11;;;;;;;;;;;;;;;10.70;nan;101071.88;5041303;28;19921;-87
2023/11/17 07:22:41;;;;;;;;;;;;;;;10.75;nan;101076.50;5043755;28;19967;-87
2023/11/17 07:25:07;;;;;;;;;;;;;;;10.79;nan;101075.00;5039734;28;20595;-87
2023/11/17 07:27:32;;;;;;;;;;;;;;;10.81;nan;101068.34;5040822;28;19917;-87
2023/11/17 07:29:57;;;;;;;;;;;;;;;10.85;nan;101087.44;5042543;28;20590;-87
2023/11/17 07:32:23;;;;;;;;;;;;;;;10.89;nan;101085.88;5038524;28;20288;-86
2023/11/17 07:34:49;;;;;;;;;;;;;;;10.89;nan;101091.25;5041208;28;19923;-87
2023/11/17 07:37:15;;;;;;;;;;;;;;;10.93;nan;101096.94;5037412;28;20489;-87
2023/11/17 07:39:40;;;;;;;;;;;;;;;10.97;nan;101098.91;5032614;28;19913;-87
2023/11/17 07:42:06;;;;;;;;;;;;;;;11.05;nan;101095.00;5040022;28;19929;-87
2023/11/17 07:44:31;;;;;;;;;;;;;;;11.10;nan;101097.75;5038917;28;20457;-86
2023/11/17 07:47:03;;;;;;;;;;;;;;;11.09;nan;101093.47;5038406;28;19924;-87
2023/11/17 07:49:28;;;;;;;;;;;;;;;11.08;nan;101089.16;5035283;28;19917;-87
2023/11/17 07:51:54;;;;;;;;;;;;;;;11.09;nan;101094.25;5034985;28;19995;-86
2023/11/17 07:54:19;;;;;;;;;;;;;;;11.18;nan;101094.69;5033423;28;19925;-87
2023/11/17 07:56:46;;;;;;;;;;;;;;;11.18;nan;101100.88;5036125;28;19925;-87
2023/11/17 07:59:12;;;;;;;;;;;;;;;11.22;nan;101108.44;5035592;28;19917;-86
2023/11/17 08:01:39;;;;;;;;;;;;;;;11.29;nan;101106.38;5032187;28;19976;-87
2023/11/17 08:04:05;;;;;;;;;;;;;;;11.36;nan;101110.53;5031667;28;20008;-87
2023/11/17 08:06:30;;;;;;;;;;;;;;;11.40;nan;101109.00;5040674;28;19941;-85
2023/11/17 08:08:56;;;;;;;;;;;;;;;11.45;nan;101113.63;5033899;28;20092;-87
2023/11/17 08:11:22;;;;;;;;;;;;;;;11.48;nan;101115.81;5037487;28;20007;-85
2023/11/17 08:13:48;;;;;;;;;;;;;;;11.46;nan;101117.94;5038465;28;19960;-87
2023/11/17 08:16:13;;;;;;;;;;;;;;;11.52;nan;101127.69;5040694;28;19956;-87
2023/11/17 08:18:38;;;;;;;;;;;;;;;11.53;nan;101121.28;5045171;28;19999;-87
2023/11/17 08:21:05;;;;;;;;;;;;;;;11.60;nan;101119.22;5041636;28;20414;-87
2023/11/17 08:23:30;;;;;;;;;;;;;;;11.62;nan;101119.78;5039957;28;19923;-86
2023/11/17 08:25:56;;;;;;;;;;;;;;;11.67;nan;101119.88;5036863;28;20320;-87
2023/11/17 08:28:22;;;;;;;;;;;;;;;11.73;nan;101124.25;5047994;28;20047;-87
2023/11/17 08:30:47;;;;;;;;;;;;;;;11.80;nan;101130.28;5026556;28;19917;-87
2023/11/17 08:33:13;;;;;;;;;;;;;;;11.84;nan;101132.47;5047376;28;19931;-87
2023/11/17 08:35:38;;;;;;;;;;;;;;;11.90;nan;101135.00;5040468;28;19921;-87
2023/11/17 08:38:06;;;;;;;;;;;;;;;11.88;nan;101137.13;5038762;28;19925;-87
2023/11/17 08:40:31;;;;;;;;;;;;;;;11.94;nan;101143.38;5046050;28;19992;-87
2023/11/17 08:42:56;;;;;;;;;;;;;;;11.94;nan;101138.81;5034783;28;20015;-87
2023/11/17 08:45:22;;;;;;;;;;;;;;;11.93;nan;101144.44;5045988;28;19920;-86
2023/11/17 08:47:49;;;;;;;;;;;;;;;11.93;nan;101145.25;5046127;28;19929;-87
2023/11/17 08:50:15;;;;;;;;;;;;;;;11.99;nan;101143.44;5047338;28;19931;-87
2023/11/17 08:52:42;;;;;;;;;;;;;;;12.04;nan;101151.59;5048055;28;19917;-86
2023/11/17 08:55:08;;;;;;;;;;;;;;;12.07;nan;101140.34;5044140;28;19960;-87
2023/11/17 08:57:34;;;;;;;;;;;;;;;12.12;nan;101137.72;5046401;28;19920;-86
2023/11/17 08:59:59;;;;;;;;;;;;;;;12.10;nan;101150.56;5044312;28;19928;-87
2023/11/17 09:02:25;;;;;;;;;;;;;;;12.12;nan;101148.44;5046012;28;19944;-87
2023/11/17 09:04:52;;;;;;;;;;;;;;;12.08;nan;101153.53;5043532;28;19917;-87
2023/11/17 09:07:17;;;;;;;;;;;;;;;12.11;nan;101157.56;5048293;28;19921;-87
2023/11/17 09:09:43;;;;;;;;;;;;;;;12.06;nan;101152.97;5041241;28;19932;-87
2023/11/17 09:12:09;;;;;;;;;;;;;;;12.12;nan;101159.19;5041914;28;19980;-89
2023/11/17 09:14:36;;;;;;;;;;;;;;;12.18;nan;101155.50;5050773;28;19925;-88
2023/11/17 09:17:06;;;;;;;;;;;;;;;12.25;nan;101163.41;5045193;28;19929;-88
2023/11/17 09:19:36;;;;;;;;;;;;;;;12.29;nan;101170.72;5046394;28;19924;-89
2023/11/17 09:22:01;;;;;;;;;;;;;;;12.30;nan;101169.66;5049611;28;19920;-88
2023/11/17 09:24:26;;;;;;;;;;;;;;;12.32;nan;101172.09;5045405;28;19921;-86
2023/11/17 09:26:53;;;;;;;;;;;;;;;12.37;nan;101172.94;5043890;28;20437;-86
2023/11/17 09:29:19;;;;;;;;;;;;;;;12.41;nan;101173.28;5051682;28;19921;-87
2023/11/17 09:31:44;;;;;;;;;;;;;;;12.48;nan;101168.53;5044605;28;19920;-87
2023/11/17 09:34:09;;;;;;;;;;;;;;;12.52;nan;101171.53;5044197;28;19987;-88
2023/11/17 09:36:36;;;;;;;;;;;;;;;12.55;nan;101184.47;5052252;28;19995;-87
2023/11/17 09:39:01;;;;;;;;;;;;;;;12.62;nan;101185.09;5042101;28;19939;-86
2023/11/17 09:41:27;;;;;;;;;;;;;;;12.66;nan;101180.84;5044928;28;20387;-87
2023/11/17 09:43:57;;;;;;;;;;;;;;;12.61;nan;101184.28;5048663;28;19927;-87
2023/11/17 09:46:27;;;;;;;;;;;;;;;12.67;nan;101177.91;5048199;28;20663;-88
2023/11/17 09:48:58;;;;;;;;;;;;;;;12.61;nan;101172.72;5048374;28;19927;-86
2023/11/17 09:51:24;;;;;;;;;;;;;;;12.60;nan;101176.47;5046927;28;19928;-86
2023/11/17 09:53:49;;;;;;;;;;;;;;;12.55;nan;101168.34;5044418;28;19925;-86
2023/11/17 09:56:15;;;;;;;;;;;;;;;12.55;nan;101173.72;5043623;28;19932;-86
2023/11/17 09:58:42;;;;;;;;;;;;;;;12.53;nan;101173.16;5050684;28;20372;-87
2023/11/17 10:01:10;;;;;;;;;;;;;;;12.53;nan;101176.66;5042738;28;20301;-86
2023/11/17 10:03:36;;;;;;;;;;;;;;;12.44;nan;101180.03;5044726;28;19917;-87
2023/11/17 10:06:04;;;;;;;;;;;;;;;12.39;nan;101183.47;5041339;28;19917;-87
2023/11/17 10:08:30;;;;;;;;;;;;;;;12.33;nan;101179.09;5047256;28;19917;-88
2023/11/17 10:10:56;;;;;;;;;;;;;;;12.30;nan;101188.47;5043318;28;19921;-87
2023/11/17 10:13:25;;;;;;;;;;;;;;;12.35;nan;101176.97;5043601;28;19967;-88
2023/11/17 10:15:50;;;;;;;;;;;;;;;12.32;nan;101180.97;5045479;28;19975;-86
2023/11/17 10:18:24;;;;;;;;;;;;;;;12.29;nan;101191.41;5043048;28;19924;-88
2023/11/17 10:20:50;;;;;;;;;;;;;;;12.27;nan;101199.72;5043522;28;20499;-88
2023/11/17 10:23:16;;;;;;;;;;;;;;;12.33;nan;101201.38;5042086;28;19936;-88
2023/11/17 10:25:43;;;;;;;;;;;;;;;12.38;nan;101206.81;5046174;28;19924;-86
2023/11/17 10:28:08;;;;;;;;;;;;;;;12.34;nan;101212.94;5047397;28;19921;-88
2023/11/17 10:30:37;;;;;;;;;;;;;;;12.30;nan;101209.94;5043332;28;19920;-87
2023/11/17 10:33:06;;;;;;;;;;;;;;;12.30;nan;101209.13;5043980;28;19916;-88
2023/11/17 10:35:34;;;;;;;;;;;;;;;12.30;nan;101209.94;5044648;28;19916;-88
2023/11/17 10:38:00;;;;;;;;;;;;;;;12.32;nan;101207.00;5047723;28;19976;-87
2023/11/17 10:40:27;;;;;;;;;;;;;;;12.34;nan;101208.38;5048055;28;19917;-87
2023/11/17 10:43:07;;;;;;;;;;;;;;;12.42;nan;101209.84;5046866;28;19921;-88
2023/11/17 10:45:37;;;;;;;;;;;;;;;12.40;nan;101214.66;5047648;28;19980;-86
2023/11/17 10:48:06;;;;;;;;;;;;;;;12.41;nan;101210.91;5049685;28;19956;-87
2023/11/17 10:50:31;;;;;;;;;;;;;;;12.35;nan;101212.69;5047755;28;19927;-87
2023/11/17 10:53:10;;;;;;;;;;;;;;;12.32;nan;101215.88;5044394;28;19917;-87
2023/11/17 10:55:36;;;;;;;;;;;;;;;12.37;nan;101220.50;5043108;28;19916;-88
2023/11/17 10:58:06;;;;;;;;;;;;;;;12.36;nan;101213.50;5029121;28;19917;-87
2023/11/17 11:00:33;;;;;;;;;;;;;;;12.39;nan;101221.91;5045398;28;20008;-87
2023/11/17 11:02:59;;;;;;;;;;;;;;;12.44;nan;101220.34;5041610;28;20011;-88
2023/11/17 11:05:25;;;;;;;;;;;;;;;12.47;nan;101222.53;5044666;28;20011;-87
2023/11/17 11:07:52;;;;;;;;;;;;;;;12.47;nan;101225.22;5047901;28;20028;-89
2023/11/17 11:10:17;;;;;;;;;;;;;;;12.49;nan;101220.41;5045622;28;19921;-87
2023/11/17 11:12:45;;;;;;;;;;;;;;;12.47;nan;101219.84;5047939;28;19923;-88
2023/11/17 11:15:14;;;;;;;;;;;;;;;12.52;nan;101222.59;5042510;28;19921;-88
2023/11/17 11:17:52;;;;;;;;;;;;;;;12.63;nan;101224.34;5046484;28;19916;-88
2023/11/17 11:20:21;;;;;;;;;;;;;;;12.71;nan;101229.28;5049808;28;19916;-87
2023/11/17 11:22:46;;;;;;;;;;;;;;;12.77;nan;101230.19;5039746;28;19928;-88
2023/11/17 11:25:12;;;;;;;;;;;;;;;12.81;nan;101224.03;5041490;28;20528;-88
2023/11/17 11:27:38;;;;;;;;;;;;;;;12.89;nan;101238.91;5044343;28;19917;-88
2023/11/17 11:30:06;;;;;;;;;;;;;;;12.96;nan;101237.66;5048549;28;20416;-88
2023/11/17 11:32:32;;;;;;;;;;;;;;;12.94;nan;101231.72;5048405;28;20019;-87
2023/11/17 11:34:58;;;;;;;;;;;;;;;12.98;nan;101232.84;5043251;28;19914;-88
2023/11/17 11:37:25;;;;;;;;;;;;;;;12.98;nan;101240.91;5043437;28;19941;-88
2023/11/17 11:39:50;;;;;;;;;;;;;;;13.06;nan;101236.16;5046641;28;20007;-87
2023/11/17 11:42:16;;;;;;;;;;;;;;;13.09;nan;101236.44;5039807;28;20632;-87
2023/11/17 11:44:41;;;;;;;;;;;;;;;13.02;nan;101239.34;5046236;28;19927;-88
2023/11/17 11:47:07;;;;;;;;;;;;;;;12.96;nan;101251.13;5044129;28;19917;-88
2023/11/17 11:49:33;;;;;;;;;;;;;;;12.93;nan;101251.63;5045964;28;19912;-88
2023/11/17 11:51:59;;;;;;;;;;;;;;;12.88;nan;101259.63;5047011;28;20493;-88
2023/11/17 11:54:26;;;;;;;;;;;;;;;12.86;nan;101261.75;5046249;28;19928;-88
2023/11/17 11:56:51;;;;;;;;;;;;;;;12.87;nan;101260.69;5047930;28;19920;-88
2023/11/17 11:59:16;;;;;;;;;;;;;;;12.89;nan;101261.25;5046676;28;19923;-89
2023/11/17 12:01:42;;;;;;;;;;;;;;;12.75;nan;101268.06;5049659;28;20092;-87
2023/11/17 12:04:10;;;;;;;;;;;;;;;12.75;nan;101265.38;5041261;28;19935;-88
2023/11/17 12:06:36;;;;;;;;;;;;;;;12.83;nan;101270.31;5044655;28;19924;-88
2023/11/17 12:09:08;;;;;;;;;;;;;;;12.82;nan;101270.56;5047032;28;20285;-88
2023/11/17 12:11:35;;;;;;;;;;;;;;;12.88;nan;101275.75;5044609;28;19925;-87
2023/11/17 12:14:04;;;;;;;;;;;;;;;12.95;nan;101283.66;5041803;28;19959;-88
2023/11/17 12:16:29;;;;;;;;;;;;;;;12.98;nan;101286.66;5043324;28;20008;-88
2023/11/17 12:18:56;;;;;;;;;;;;;;;13.05;nan;101291.00;5042789;28;20015;-88
2023/11/17 12:21:23;;;;;;;;;;;;;;;13.09;nan;101286.75;5046900;28;19920;-88
2023/11/17 12:23:57;;;;;;;;;;;;;;;13.12;nan;101291.66;5046058;28;19923;-87
2023/11/17 12:26:26;;;;;;;;;;;;;;;13.13;nan;101285.19;5050035;28;19917;-87
2023/11/17 12:28:53;;;;;;;;;;;;;;;13.12;nan;101288.97;5041876;28;19923;-88
2023/11/17 12:31:19;;;;;;;;;;;;;;;13.15;nan;101296.53;5048357;28;19917;-88
2023/11/17 12:33:46;;;;;;;;;;;;;;;13.14;nan;101293.03;5040290;28;19917;-88
2023/11/17 12:36:19;;;;;;;;;;;;;;;13.15;nan;101296.53;5041712;28;19916;-88
2023/11/17 12:38:45;;;;;;;;;;;;;;;13.24;nan;101298.53;5039478;28;19952;-86
2023/11/17 12:41:13;;;;;;;;;;;;;;;13.20;nan;101291.22;5041864;28;20010;-88
2023/11/17 12:43:39;;;;;;;;;;;;;;;13.23;nan;101298.78;5039502;28;19976;-88
2023/11/17 12:46:06;;;;;;;;;;;;;;;13.19;nan;101300.38;5039691;28;19921;-88
2023/11/17 12:48:32;;;;;;;;;;;;;;;13.16;nan;101298.97;5041517;28;20372;-88
2023/11/17 12:50:58;;;;;;;;;;;;;;;13.13;nan;101301.34;5040951;28;19933;-88
2023/11/17 12:53:24;;;;;;;;;;;;;;;13.16;nan;101300.84;5029371;28;20293;-87
2023/11/17 12:55:49;;;;;;;;;;;;;;;13.19;nan;101303.88;5043425;28;19968;-88
2023/11/17 12:58:14;;;;;;;;;;;;;;;13.13;nan;101310.22;5045983;28;19921;-87